sensor_id;sensor_type;location;lat;lon;timestamp;temperature;humidity
7248;DHT22;3665;51.034;13.642;2022-12-18T00:01:25;-8.60;1.00
7248;DHT22;3665;51.034;13.642;2022-12-18T00:06:10;-8.60;1.00
7248;DHT22;3665;51.034;13.642;2022-12-18T00:11:05;-8.40;1.00
7248;DHT22;3665;51.034;13.642;2022-12-18T00:16:22;-8.40;99.90
7248;DHT22;3665;51.034;13.642;2022-12-18T00:21:09;-8.50;1.00
7248;DHT22;3665;51.034;13.642;2022-12-18T00:25:54;-8.10;1.00
7248;DHT22;3665;51.034;13.642;2022-12-18T00:30:43;-8.10;99.90
7248;DHT22;3665;51.034;13.642;2022-12-18T00:35:31;-8.10;1.00
7248;DHT22;3665;51.034;13.642;2022-12-18T00:40:19;-7.90;1.00
7248;DHT22;3665;51.034;13.642;2022-12-18T00:45:07;-8.00;1.00
7248;DHT22;3665;51.034;13.642;2022-12-18T00:49:55;-8.00;1.00
7248;DHT22;3665;51.034;13.642;2022-12-18T00:54:44;-8.30;1.00
7248;DHT22;3665;51.034;13.642;2022-12-18T00:59:31;-8.40;1.00
7248;DHT22;3665;51.034;13.642;2022-12-18T01:04:24;-8.50;1.00
7248;DHT22;3665;51.034;13.642;2022-12-18T01:09:09;-8.50;1.00
7248;DHT22;3665;51.034;13.642;2022-12-18T01:13:56;-8.60;1.00
7248;DHT22;3665;51.034;13.642;2022-12-18T01:18:43;-8.50;1.00
7248;DHT22;3665;51.034;13.642;2022-12-18T01:23:31;-8.50;1.00
7248;DHT22;3665;51.034;13.642;2022-12-18T01:28:19;-8.50;1.00
7248;DHT22;3665;51.034;13.642;2022-12-18T01:33:06;-8.60;1.00
7248;DHT22;3665;51.034;13.642;2022-12-18T01:37:56;-8.70;1.00
7248;DHT22;3665;51.034;13.642;2022-12-18T01:43:01;-8.80;1.00
7248;DHT22;3665;51.034;13.642;2022-12-18T01:47:51;-8.70;1.00
7248;DHT22;3665;51.034;13.642;2022-12-18T01:52:53;-8.90;1.00
7248;DHT22;3665;51.034;13.642;2022-12-18T01:57:55;-9.00;1.00
7248;DHT22;3665;51.034;13.642;2022-12-18T02:02:45;-9.00;1.00
7248;DHT22;3665;51.034;13.642;2022-12-18T02:07:38;-9.00;1.00
7248;DHT22;3665;51.034;13.642;2022-12-18T02:12:42;-8.90;1.00
7248;DHT22;3665;51.034;13.642;2022-12-18T02:17:43;-8.80;1.00
7248;DHT22;3665;51.034;13.642;2022-12-18T02:28:25;-9.00;99.90
7248;DHT22;3665;51.034;13.642;2022-12-18T02:33:23;-9.10;99.90
7248;DHT22;3665;51.034;13.642;2022-12-18T02:38:12;-9.20;99.90
7248;DHT22;3665;51.034;13.642;2022-12-18T02:43:18;-9.40;99.90
7248;DHT22;3665;51.034;13.642;2022-12-18T02:48:04;-9.30;1.00
7248;DHT22;3665;51.034;13.642;2022-12-18T02:52:59;-9.40;1.00
7248;DHT22;3665;51.034;13.642;2022-12-18T02:58:00;-9.30;1.00
7248;DHT22;3665;51.034;13.642;2022-12-18T03:03:02;-9.40;1.00
7248;DHT22;3665;51.034;13.642;2022-12-18T03:08:21;-9.50;99.90
7248;DHT22;3665;51.034;13.642;2022-12-18T03:19:19;-9.70;99.90
7248;DHT22;3665;51.034;13.642;2022-12-18T03:24:38;-9.70;99.90
7248;DHT22;3665;51.034;13.642;2022-12-18T03:29:25;-9.70;99.90
7248;DHT22;3665;51.034;13.642;2022-12-18T03:34:34;-9.70;99.90
7248;DHT22;3665;51.034;13.642;2022-12-18T03:39:32;-9.70;99.90
7248;DHT22;3665;51.034;13.642;2022-12-18T03:44:35;-9.60;99.90
7248;DHT22;3665;51.034;13.642;2022-12-18T03:49:59;-9.70;99.90
7248;DHT22;3665;51.034;13.642;2022-12-18T03:54:58;-9.70;99.90
7248;DHT22;3665;51.034;13.642;2022-12-18T04:00:09;-9.70;99.90
7248;DHT22;3665;51.034;13.642;2022-12-18T04:05:22;-9.70;99.90
7248;DHT22;3665;51.034;13.642;2022-12-18T04:10:12;-9.90;99.90
7248;DHT22;3665;51.034;13.642;2022-12-18T04:14:57;-9.80;99.90
7248;DHT22;3665;51.034;13.642;2022-12-18T04:19:49;-9.70;99.90
7248;DHT22;3665;51.034;13.642;2022-12-18T04:24:40;-9.70;99.90
7248;DHT22;3665;51.034;13.642;2022-12-18T04:29:37;-9.90;99.90
7248;DHT22;3665;51.034;13.642;2022-12-18T04:34:28;-9.90;99.90
7248;DHT22;3665;51.034;13.642;2022-12-18T04:39:15;-9.90;99.90
7248;DHT22;3665;51.034;13.642;2022-12-18T04:44:03;-9.90;99.90
7248;DHT22;3665;51.034;13.642;2022-12-18T04:48:51;-10.00;99.90
7248;DHT22;3665;51.034;13.642;2022-12-18T04:53:38;-10.10;99.90
7248;DHT22;3665;51.034;13.642;2022-12-18T04:58:27;-9.90;99.90
7248;DHT22;3665;51.034;13.642;2022-12-18T05:03:15;-10.00;99.90
7248;DHT22;3665;51.034;13.642;2022-12-18T05:08:03;-10.00;99.90
7248;DHT22;3665;51.034;13.642;2022-12-18T05:12:51;-10.00;99.90
7248;DHT22;3665;51.034;13.642;2022-12-18T05:18:15;-10.00;99.90
7248;DHT22;3665;51.034;13.642;2022-12-18T05:22:59;-10.10;99.90
7248;DHT22;3665;51.034;13.642;2022-12-18T05:27:46;-10.10;99.90
7248;DHT22;3665;51.034;13.642;2022-12-18T05:32:34;-10.00;99.90
7248;DHT22;3665;51.034;13.642;2022-12-18T05:37:24;-10.00;99.90
7248;DHT22;3665;51.034;13.642;2022-12-18T05:42:11;-10.00;99.90
7248;DHT22;3665;51.034;13.642;2022-12-18T05:47:20;-9.90;99.90
7248;DHT22;3665;51.034;13.642;2022-12-18T05:52:04;-10.00;99.90
7248;DHT22;3665;51.034;13.642;2022-12-18T05:56:52;-10.00;99.90
7248;DHT22;3665;51.034;13.642;2022-12-18T06:01:39;-9.90;1.00
7248;DHT22;3665;51.034;13.642;2022-12-18T06:06:27;-10.00;99.90
7248;DHT22;3665;51.034;13.642;2022-12-18T06:11:17;-10.00;99.90
7248;DHT22;3665;51.034;13.642;2022-12-18T06:16:06;-10.00;99.90
7248;DHT22;3665;51.034;13.642;2022-12-18T06:20:55;-10.00;99.90
7248;DHT22;3665;51.034;13.642;2022-12-18T06:25:39;-10.10;99.90
7248;DHT22;3665;51.034;13.642;2022-12-18T06:30:26;-10.10;99.90
7248;DHT22;3665;51.034;13.642;2022-12-18T06:35:16;-10.20;99.90
7248;DHT22;3665;51.034;13.642;2022-12-18T06:40:05;-10.10;99.90
7248;DHT22;3665;51.034;13.642;2022-12-18T06:44:49;-10.10;99.90
7248;DHT22;3665;51.034;13.642;2022-12-18T06:49:59;-10.30;99.90
7248;DHT22;3665;51.034;13.642;2022-12-18T06:54:45;-10.30;99.90
7248;DHT22;3665;51.034;13.642;2022-12-18T06:59:30;-10.20;99.90
7248;DHT22;3665;51.034;13.642;2022-12-18T07:04:19;-10.00;1.00
7248;DHT22;3665;51.034;13.642;2022-12-18T07:09:07;-9.90;1.00
7248;DHT22;3665;51.034;13.642;2022-12-18T07:18:44;-10.00;99.90
7248;DHT22;3665;51.034;13.642;2022-12-18T07:23:32;-10.10;99.90
7248;DHT22;3665;51.034;13.642;2022-12-18T07:28:17;-10.20;99.90
7248;DHT22;3665;51.034;13.642;2022-12-18T07:33:07;-10.00;99.90
7248;DHT22;3665;51.034;13.642;2022-12-18T07:37:56;-9.90;99.90
7248;DHT22;3665;51.034;13.642;2022-12-18T07:42:43;-9.80;99.90
7248;DHT22;3665;51.034;13.642;2022-12-18T07:47:34;-9.70;99.90
7248;DHT22;3665;51.034;13.642;2022-12-18T07:52:18;-9.50;99.90
7248;DHT22;3665;51.034;13.642;2022-12-18T07:57:08;-9.50;92.60
7248;DHT22;3665;51.034;13.642;2022-12-18T08:02:44;-9.30;73.40
7248;DHT22;3665;51.034;13.642;2022-12-18T08:07:30;-9.30;58.20
7248;DHT22;3665;51.034;13.642;2022-12-18T08:12:20;-9.10;55.50
7248;DHT22;3665;51.034;13.642;2022-12-18T08:17:05;-9.00;56.90
7248;DHT22;3665;51.034;13.642;2022-12-18T08:21:58;-8.70;69.00
7248;DHT22;3665;51.034;13.642;2022-12-18T08:26:42;-8.50;54.00
7248;DHT22;3665;51.034;13.642;2022-12-18T08:31:48;-8.20;47.00
7248;DHT22;3665;51.034;13.642;2022-12-18T08:36:33;-7.80;49.60
7248;DHT22;3665;51.034;13.642;2022-12-18T08:41:22;-7.50;27.30
7248;DHT22;3665;51.034;13.642;2022-12-18T08:46:13;-7.30;12.00
7248;DHT22;3665;51.034;13.642;2022-12-18T08:51:31;-7.10;1.00
7248;DHT22;3665;51.034;13.642;2022-12-18T08:56:17;-6.90;1.00
7248;DHT22;3665;51.034;13.642;2022-12-18T09:01:09;-6.80;1.00
7248;DHT22;3665;51.034;13.642;2022-12-18T09:05:53;-6.70;1.00
7248;DHT22;3665;51.034;13.642;2022-12-18T09:10:44;-6.40;1.00
7248;DHT22;3665;51.034;13.642;2022-12-18T09:15:31;-6.40;1.00
7248;DHT22;3665;51.034;13.642;2022-12-18T09:20:17;-6.10;1.00
7248;DHT22;3665;51.034;13.642;2022-12-18T09:25:06;-5.90;1.00
7248;DHT22;3665;51.034;13.642;2022-12-18T09:29:55;-5.60;1.00
7248;DHT22;3665;51.034;13.642;2022-12-18T09:34:43;-5.30;1.00
7248;DHT22;3665;51.034;13.642;2022-12-18T09:39:33;-5.10;1.00
7248;DHT22;3665;51.034;13.642;2022-12-18T09:44:43;-4.90;1.00
7248;DHT22;3665;51.034;13.642;2022-12-18T09:49:44;-4.70;1.00
7248;DHT22;3665;51.034;13.642;2022-12-18T09:55:20;-4.40;1.00
7248;DHT22;3665;51.034;13.642;2022-12-18T10:00:38;-4.50;1.00
7248;DHT22;3665;51.034;13.642;2022-12-18T10:05:41;-4.30;1.00
7248;DHT22;3665;51.034;13.642;2022-12-18T10:17:28;-4.10;1.00
7248;DHT22;3665;51.034;13.642;2022-12-18T10:22:42;-4.10;1.00
7248;DHT22;3665;51.034;13.642;2022-12-18T10:27:46;-4.10;1.00
7248;DHT22;3665;51.034;13.642;2022-12-18T10:32:35;-4.00;1.00
7248;DHT22;3665;51.034;13.642;2022-12-18T10:37:26;-4.10;1.00
7248;DHT22;3665;51.034;13.642;2022-12-18T10:42:27;-4.00;1.00
7248;DHT22;3665;51.034;13.642;2022-12-18T10:47:31;-4.00;1.00
7248;DHT22;3665;51.034;13.642;2022-12-18T11:19:30;-3.70;1.00
7248;DHT22;3665;51.034;13.642;2022-12-18T11:24:49;-3.60;1.00
7248;DHT22;3665;51.034;13.642;2022-12-18T11:38:28;-3.40;1.00
7248;DHT22;3665;51.034;13.642;2022-12-18T11:43:16;-3.30;1.00
7248;DHT22;3665;51.034;13.642;2022-12-18T11:48:05;-3.30;1.00
7248;DHT22;3665;51.034;13.642;2022-12-18T11:52:53;-3.30;1.00
7248;DHT22;3665;51.034;13.642;2022-12-18T11:57:54;-3.20;1.00
7248;DHT22;3665;51.034;13.642;2022-12-18T12:02:58;-3.20;1.00
7248;DHT22;3665;51.034;13.642;2022-12-18T12:07:59;-3.10;1.00
7248;DHT22;3665;51.034;13.642;2022-12-18T12:13:03;-3.20;1.00
7248;DHT22;3665;51.034;13.642;2022-12-18T12:18:06;-3.10;1.00
7248;DHT22;3665;51.034;13.642;2022-12-18T12:23:09;-3.10;1.00
7248;DHT22;3665;51.034;13.642;2022-12-18T12:28:13;-3.10;1.00
7248;DHT22;3665;51.034;13.642;2022-12-18T12:33:16;-3.10;1.00
7248;DHT22;3665;51.034;13.642;2022-12-18T12:38:13;-3.10;1.00
7248;DHT22;3665;51.034;13.642;2022-12-18T12:43:21;-3.10;1.00
7248;DHT22;3665;51.034;13.642;2022-12-18T12:48:22;-3.20;1.00
7248;DHT22;3665;51.034;13.642;2022-12-18T12:53:23;-3.10;1.00
7248;DHT22;3665;51.034;13.642;2022-12-18T12:58:29;-3.20;1.00
7248;DHT22;3665;51.034;13.642;2022-12-18T13:03:45;-3.30;1.00
7248;DHT22;3665;51.034;13.642;2022-12-18T13:08:54;-3.50;1.00
7248;DHT22;3665;51.034;13.642;2022-12-18T13:14:26;-3.60;1.00
7248;DHT22;3665;51.034;13.642;2022-12-18T13:19:43;-3.80;1.00
7248;DHT22;3665;51.034;13.642;2022-12-18T13:24:37;-3.90;1.00
7248;DHT22;3665;51.034;13.642;2022-12-18T13:29:48;-4.00;1.00
7248;DHT22;3665;51.034;13.642;2022-12-18T13:34:37;-4.10;1.00
7248;DHT22;3665;51.034;13.642;2022-12-18T13:39:33;-4.20;1.00
7248;DHT22;3665;51.034;13.642;2022-12-18T13:44:32;-4.20;1.00
7248;DHT22;3665;51.034;13.642;2022-12-18T13:49:37;-4.00;1.00
7248;DHT22;3665;51.034;13.642;2022-12-18T13:54:27;-3.90;1.00
7248;DHT22;3665;51.034;13.642;2022-12-18T13:59:19;-3.90;1.00
7248;DHT22;3665;51.034;13.642;2022-12-18T14:04:31;-4.00;1.00
7248;DHT22;3665;51.034;13.642;2022-12-18T14:09:33;-4.10;1.00
7248;DHT22;3665;51.034;13.642;2022-12-18T14:14:20;-4.20;1.00
7248;DHT22;3665;51.034;13.642;2022-12-18T14:19:15;-4.40;1.00
7248;DHT22;3665;51.034;13.642;2022-12-18T14:24:11;-4.50;1.00
7248;DHT22;3665;51.034;13.642;2022-12-18T14:29:17;-4.60;1.00
7248;DHT22;3665;51.034;13.642;2022-12-18T14:34:15;-4.80;1.00
7248;DHT22;3665;51.034;13.642;2022-12-18T14:38:59;-4.90;1.00
7248;DHT22;3665;51.034;13.642;2022-12-18T14:43:48;-5.10;1.00
7248;DHT22;3665;51.034;13.642;2022-12-18T14:48:39;-5.20;1.00
7248;DHT22;3665;51.034;13.642;2022-12-18T14:53:39;-5.40;1.00
7248;DHT22;3665;51.034;13.642;2022-12-18T14:58:26;-5.50;1.00
7248;DHT22;3665;51.034;13.642;2022-12-18T15:03:17;-5.60;1.00
7248;DHT22;3665;51.034;13.642;2022-12-18T15:08:31;-5.60;1.00
7248;DHT22;3665;51.034;13.642;2022-12-18T15:13:22;-5.80;1.00
7248;DHT22;3665;51.034;13.642;2022-12-18T15:18:13;-6.00;1.00
7248;DHT22;3665;51.034;13.642;2022-12-18T15:23:02;-6.10;1.00
7248;DHT22;3665;51.034;13.642;2022-12-18T15:27:49;-6.10;1.00
7248;DHT22;3665;51.034;13.642;2022-12-18T15:32:35;-6.00;1.00
7248;DHT22;3665;51.034;13.642;2022-12-18T15:37:22;-6.20;1.00
7248;DHT22;3665;51.034;13.642;2022-12-18T15:42:14;-6.40;1.00
7248;DHT22;3665;51.034;13.642;2022-12-18T15:47:17;-6.30;1.00
7248;DHT22;3665;51.034;13.642;2022-12-18T15:52:02;-6.40;1.00
7248;DHT22;3665;51.034;13.642;2022-12-18T15:56:46;-6.40;1.00
7248;DHT22;3665;51.034;13.642;2022-12-18T16:01:49;-6.60;1.00
7248;DHT22;3665;51.034;13.642;2022-12-18T16:06:39;-6.40;1.00
7248;DHT22;3665;51.034;13.642;2022-12-18T16:11:46;-6.50;1.00
7248;DHT22;3665;51.034;13.642;2022-12-18T16:16:30;-6.50;1.00
7248;DHT22;3665;51.034;13.642;2022-12-18T16:21:14;-6.60;1.00
7248;DHT22;3665;51.034;13.642;2022-12-18T16:26:00;-6.70;1.00
7248;DHT22;3665;51.034;13.642;2022-12-18T16:30:43;-6.50;1.00
7248;DHT22;3665;51.034;13.642;2022-12-18T16:35:31;-6.40;1.00
7248;DHT22;3665;51.034;13.642;2022-12-18T16:40:17;-6.50;1.00
7248;DHT22;3665;51.034;13.642;2022-12-18T16:45:06;-6.50;1.00
7248;DHT22;3665;51.034;13.642;2022-12-18T16:49:50;-6.40;1.00
7248;DHT22;3665;51.034;13.642;2022-12-18T16:54:41;-6.50;1.00
7248;DHT22;3665;51.034;13.642;2022-12-18T16:59:26;-6.60;1.00
7248;DHT22;3665;51.034;13.642;2022-12-18T17:04:13;-6.50;1.00
7248;DHT22;3665;51.034;13.642;2022-12-18T17:08:58;-6.40;1.00
7248;DHT22;3665;51.034;13.642;2022-12-18T17:13:42;-6.40;1.00
7248;DHT22;3665;51.034;13.642;2022-12-18T17:18:28;-6.40;1.00
7248;DHT22;3665;51.034;13.642;2022-12-18T17:23:13;-6.50;1.00
7248;DHT22;3665;51.034;13.642;2022-12-18T17:27:57;-6.40;1.00
7248;DHT22;3665;51.034;13.642;2022-12-18T17:32:43;-6.40;1.00
7248;DHT22;3665;51.034;13.642;2022-12-18T17:37:27;-6.30;1.00
7248;DHT22;3665;51.034;13.642;2022-12-18T17:42:14;-6.30;1.00
7248;DHT22;3665;51.034;13.642;2022-12-18T17:46:58;-6.30;1.00
7248;DHT22;3665;51.034;13.642;2022-12-18T17:51:42;-6.30;1.00
7248;DHT22;3665;51.034;13.642;2022-12-18T17:56:26;-6.20;1.00
7248;DHT22;3665;51.034;13.642;2022-12-18T18:01:13;-6.20;1.00
7248;DHT22;3665;51.034;13.642;2022-12-18T18:05:58;-6.20;1.00
7248;DHT22;3665;51.034;13.642;2022-12-18T18:10:57;-6.20;1.00
7248;DHT22;3665;51.034;13.642;2022-12-18T18:16:01;-6.20;1.00
7248;DHT22;3665;51.034;13.642;2022-12-18T18:20:53;-6.20;7.50
7248;DHT22;3665;51.034;13.642;2022-12-18T18:25:40;-6.10;9.20
7248;DHT22;3665;51.034;13.642;2022-12-18T18:30:24;-6.00;5.00
7248;DHT22;3665;51.034;13.642;2022-12-18T18:35:09;-5.90;7.20
7248;DHT22;3665;51.034;13.642;2022-12-18T18:40:13;-5.90;5.70
7248;DHT22;3665;51.034;13.642;2022-12-18T18:45:01;-5.80;1.00
7248;DHT22;3665;51.034;13.642;2022-12-18T18:49:45;-5.70;1.00
7248;DHT22;3665;51.034;13.642;2022-12-18T18:54:33;-5.60;1.00
7248;DHT22;3665;51.034;13.642;2022-12-18T18:59:18;-5.70;1.00
7248;DHT22;3665;51.034;13.642;2022-12-18T19:04:13;-5.50;1.00
7248;DHT22;3665;51.034;13.642;2022-12-18T19:09:01;-5.60;1.00
7248;DHT22;3665;51.034;13.642;2022-12-18T19:13:46;-5.60;1.00
7248;DHT22;3665;51.034;13.642;2022-12-18T19:18:37;-5.40;1.00
7248;DHT22;3665;51.034;13.642;2022-12-18T19:23:23;-5.50;1.00
7248;DHT22;3665;51.034;13.642;2022-12-18T19:28:08;-5.50;1.00
7248;DHT22;3665;51.034;13.642;2022-12-18T19:33:03;-5.50;1.00
7248;DHT22;3665;51.034;13.642;2022-12-18T19:38:09;-5.40;1.00
7248;DHT22;3665;51.034;13.642;2022-12-18T19:42:54;-5.30;1.00
7248;DHT22;3665;51.034;13.642;2022-12-18T19:47:41;-5.20;1.00
7248;DHT22;3665;51.034;13.642;2022-12-18T19:52:26;-5.10;1.00
7248;DHT22;3665;51.034;13.642;2022-12-18T19:57:12;-5.00;1.00
7248;DHT22;3665;51.034;13.642;2022-12-18T20:01:55;-5.00;1.00
7248;DHT22;3665;51.034;13.642;2022-12-18T20:06:48;-5.00;1.00
7248;DHT22;3665;51.034;13.642;2022-12-18T20:11:33;-4.90;1.00
7248;DHT22;3665;51.034;13.642;2022-12-18T20:16:26;-4.90;1.00
7248;DHT22;3665;51.034;13.642;2022-12-18T20:21:16;-4.90;1.00
7248;DHT22;3665;51.034;13.642;2022-12-18T20:26:00;-4.90;1.00
7248;DHT22;3665;51.034;13.642;2022-12-18T20:30:50;-4.90;1.00
7248;DHT22;3665;51.034;13.642;2022-12-18T20:35:38;-4.80;1.00
7248;DHT22;3665;51.034;13.642;2022-12-18T20:40:22;-4.90;1.00
7248;DHT22;3665;51.034;13.642;2022-12-18T20:45:15;-4.80;1.00
7248;DHT22;3665;51.034;13.642;2022-12-18T20:49:59;-4.80;1.00
7248;DHT22;3665;51.034;13.642;2022-12-18T20:54:45;-4.50;1.00
7248;DHT22;3665;51.034;13.642;2022-12-18T20:59:29;-4.80;1.00
7248;DHT22;3665;51.034;13.642;2022-12-18T21:04:15;-4.70;1.00
7248;DHT22;3665;51.034;13.642;2022-12-18T21:09:01;-4.70;1.00
7248;DHT22;3665;51.034;13.642;2022-12-18T21:13:47;-4.70;1.00
7248;DHT22;3665;51.034;13.642;2022-12-18T21:18:31;-4.60;1.00
7248;DHT22;3665;51.034;13.642;2022-12-18T21:23:17;-4.60;1.00
7248;DHT22;3665;51.034;13.642;2022-12-18T21:28:02;-4.60;1.00
7248;DHT22;3665;51.034;13.642;2022-12-18T21:32:47;-4.50;1.00
7248;DHT22;3665;51.034;13.642;2022-12-18T21:37:35;-4.50;1.00
7248;DHT22;3665;51.034;13.642;2022-12-18T21:42:25;-4.50;1.00
7248;DHT22;3665;51.034;13.642;2022-12-18T21:47:28;-4.50;1.00
7248;DHT22;3665;51.034;13.642;2022-12-18T21:52:23;-4.50;1.00
7248;DHT22;3665;51.034;13.642;2022-12-18T21:57:14;-4.40;1.00
7248;DHT22;3665;51.034;13.642;2022-12-18T22:02:03;-4.40;1.00
7248;DHT22;3665;51.034;13.642;2022-12-18T22:06:48;-4.40;1.00
7248;DHT22;3665;51.034;13.642;2022-12-18T22:11:35;-4.50;1.00
7248;DHT22;3665;51.034;13.642;2022-12-18T22:16:23;-4.60;1.00
7248;DHT22;3665;51.034;13.642;2022-12-18T22:21:22;-4.60;1.00
7248;DHT22;3665;51.034;13.642;2022-12-18T22:26:12;-4.50;1.00
7248;DHT22;3665;51.034;13.642;2022-12-18T22:30:58;-4.60;1.00
7248;DHT22;3665;51.034;13.642;2022-12-18T22:35:42;-4.40;1.00
7248;DHT22;3665;51.034;13.642;2022-12-18T22:40:28;-4.40;1.00
7248;DHT22;3665;51.034;13.642;2022-12-18T22:45:12;-4.40;1.00
7248;DHT22;3665;51.034;13.642;2022-12-18T22:49:58;-4.40;1.00
7248;DHT22;3665;51.034;13.642;2022-12-18T22:54:42;-4.30;1.00
7248;DHT22;3665;51.034;13.642;2022-12-18T22:59:30;-4.40;1.00
7248;DHT22;3665;51.034;13.642;2022-12-18T23:04:15;-4.40;1.00
7248;DHT22;3665;51.034;13.642;2022-12-18T23:09:00;-4.20;1.00
7248;DHT22;3665;51.034;13.642;2022-12-18T23:13:44;-4.30;1.00
7248;DHT22;3665;51.034;13.642;2022-12-18T23:18:29;-4.30;1.00
7248;DHT22;3665;51.034;13.642;2022-12-18T23:23:14;-4.30;1.00
7248;DHT22;3665;51.034;13.642;2022-12-18T23:28:02;-4.30;1.00
7248;DHT22;3665;51.034;13.642;2022-12-18T23:32:46;-4.30;1.00
7248;DHT22;3665;51.034;13.642;2022-12-18T23:37:30;-4.30;1.00
7248;DHT22;3665;51.034;13.642;2022-12-18T23:42:38;-4.30;1.00
7248;DHT22;3665;51.034;13.642;2022-12-18T23:47:26;-4.30;1.00
7248;DHT22;3665;51.034;13.642;2022-12-18T23:52:13;-4.30;1.00
7248;DHT22;3665;51.034;13.642;2022-12-18T23:57:04;-4.40;1.00
